createdAt,value
2023-05-12T04:27:33.024Z,100290.66
2023-05-12T04:31:36.357Z,100290.66
2023-05-12T04:35:39.493Z,100293.16
2023-05-12T04:39:42.707Z,100293.84
2023-05-12T04:47:52.028Z,100296.78
2023-05-12T04:51:55.115Z,100298.91
2023-05-12T04:55:59.071Z,100295.28
2023-05-12T05:00:05.502Z,100302.22
2023-05-12T05:04:08.951Z,100300.22
2023-05-12T05:08:12.216Z,100293.97
2023-05-12T05:12:15.365Z,100289.66
2023-05-12T05:16:18.244Z,100292.09
2023-05-12T05:20:27.658Z,100286.12
2023-05-12T05:24:41.329Z,100292.56
2023-05-12T05:28:53.164Z,100296.53
2023-05-12T05:33:05.624Z,100303.31
2023-05-12T05:37:18.104Z,100305.47
2023-05-12T05:41:30.855Z,100316.03
2023-05-12T05:46:00.972Z,100304.97
2023-05-12T05:50:09.231Z,100307.44
2023-05-12T05:54:12.309Z,100317.28
2023-05-12T05:58:16.474Z,100320.28
2023-05-12T06:02:23.380Z,100320.44
2023-05-12T06:06:26.820Z,100326.41
2023-05-12T06:10:30.044Z,100320.75
2023-05-12T06:14:47.508Z,100329.03
2023-05-12T06:18:51.039Z,100317.12
2023-05-12T06:23:00.231Z,100332.63
2023-05-12T06:27:34.496Z,100331.66
2023-05-12T06:31:37.566Z,100328.34
2023-05-12T06:35:40.307Z,100334.56
2023-05-12T06:39:43.795Z,100333.19
2023-05-12T06:43:47.134Z,100340.03
2023-05-12T06:47:50.677Z,100335.69
2023-05-12T06:51:54.120Z,100334.91
2023-05-12T06:55:57.314Z,100330.31
2023-05-12T07:00:00.797Z,100327.69
2023-05-12T07:04:04.116Z,100332.78
2023-05-12T07:08:06.947Z,100337.50
2023-05-12T07:12:10.743Z,100337.56
2023-05-12T07:16:14.254Z,100340.44
2023-05-12T07:20:18.175Z,100339.38
2023-05-12T07:24:21.050Z,100325.41
2023-05-12T07:28:28.293Z,100330.03
2023-05-12T07:32:31.438Z,100331.34
2023-05-12T07:36:34.545Z,100329.69
2023-05-12T07:40:37.229Z,100323.31
2023-05-12T07:49:02.718Z,100329.84
2023-05-12T07:53:08.763Z,100336.66
2023-05-12T07:57:11.418Z,100342.16
2023-05-12T08:01:14.413Z,100334.78
2023-05-12T08:05:17.611Z,100337.97
2023-05-12T08:09:20.930Z,100340.09
2023-05-12T08:13:23.873Z,100340.47
2023-05-12T08:17:29.048Z,100344.69
2023-05-12T08:21:32.787Z,100360.75
2023-05-12T08:25:37.231Z,100358.34
2023-05-12T08:29:43.759Z,100353.72
2023-05-12T08:33:51.740Z,100359.34
2023-05-12T08:37:59.513Z,100361.84
2023-05-12T08:42:24.874Z,100364.00
2023-05-12T08:46:28.754Z,100374.19
2023-05-12T08:50:32.624Z,100380.66
2023-05-12T08:54:40.007Z,100388.19
2023-05-12T08:58:52.180Z,100387.88
2023-05-12T09:02:55.940Z,100400.84
2023-05-12T09:06:58.822Z,100388.28
2023-05-12T09:11:02.009Z,100385.66
2023-05-12T09:15:12.101Z,100393.13
2023-05-12T09:19:21.373Z,100395.59
2023-05-12T09:23:24.190Z,100399.72
2023-05-12T09:27:28.429Z,100406.53
2023-05-12T09:31:31.495Z,100404.19
2023-05-12T09:40:13.872Z,100413.47
2023-05-12T09:44:18.225Z,100408.53
2023-05-12T09:48:22.314Z,100407.69
2023-05-12T09:52:25.939Z,100402.19
2023-05-12T09:56:29.887Z,100410.81
2023-05-12T10:00:48.903Z,100410.50
2023-05-12T10:05:03.833Z,100405.88
2023-05-12T10:09:21.821Z,100395.94
2023-05-12T10:13:26.503Z,100395.94
2023-05-12T10:17:30.164Z,100400.88
2023-05-12T10:21:35.519Z,100400.38
2023-05-12T10:25:39.911Z,100393.91
2023-05-12T10:34:24.012Z,100403.84
2023-05-12T10:38:27.249Z,100406.47
2023-05-12T10:42:38.366Z,100406.06
2023-05-12T10:46:42.315Z,100416.59
2023-05-12T10:51:11.349Z,100406.28
2023-05-12T10:55:14.764Z,100414.06
2023-05-12T10:59:23.415Z,100399.28
2023-05-12T11:03:30.800Z,100405.03
2023-05-12T11:07:35.549Z,100405.03
2023-05-12T11:11:39.623Z,100404.28
2023-05-12T11:15:45.363Z,100398.59
2023-05-12T11:19:50.829Z,100402.28
2023-05-12T11:23:53.663Z,100398.38
2023-05-12T11:27:56.951Z,100403.50
2023-05-12T11:32:05.747Z,100404.41
2023-05-12T11:36:10.510Z,100404.47
2023-05-12T11:40:23.330Z,100399.91
2023-05-12T11:44:27.007Z,100404.59
2023-05-12T11:48:36.131Z,100399.72
2023-05-12T11:52:43.248Z,100406.19
2023-05-12T11:56:56.702Z,100407.41
2023-05-12T12:01:12.122Z,100403.84
2023-05-12T12:05:21.494Z,100404.50
2023-05-12T12:09:43.791Z,100407.84
2023-05-12T12:13:59.313Z,100419.41
2023-05-12T12:18:02.255Z,100423.75
2023-05-12T12:22:05.659Z,100418.78
2023-05-12T12:26:08.514Z,100423.41
2023-05-12T12:30:12.200Z,100423.09
2023-05-12T12:34:14.949Z,100422.25
2023-05-12T12:38:18.056Z,100421.94
2023-05-12T12:42:20.679Z,100418.09
2023-05-12T12:46:23.754Z,100431.38
2023-05-12T12:50:27.253Z,100427.37
2023-05-12T12:54:30.466Z,100426.06
2023-05-12T12:58:33.159Z,100424.22
2023-05-12T13:02:36.364Z,100430.37
2023-05-12T13:06:39.567Z,100427.34
2023-05-12T13:10:42.550Z,100429.34
2023-05-12T13:14:45.639Z,100417.75
2023-05-12T13:18:48.756Z,100428.69
2023-05-12T13:22:51.505Z,100424.41
2023-05-12T13:26:54.561Z,100417.97
2023-05-12T13:30:57.322Z,100418.78
2023-05-12T13:35:01.577Z,100417.78
2023-05-12T13:39:04.410Z,100417.63
2023-05-12T13:43:08.546Z,100423.41
2023-05-12T13:47:11.521Z,100422.44
2023-05-12T13:51:16.470Z,100426.87
2023-05-12T13:55:21.603Z,100430.03
2023-05-12T13:59:25.297Z,100430.19
2023-05-12T14:03:28.027Z,100439.94
2023-05-12T14:07:31.373Z,100446.44
2023-05-12T14:11:34.849Z,100450.37
2023-05-12T14:15:48.056Z,100445.91
2023-05-12T14:19:52.174Z,100459.12
2023-05-12T14:23:55.178Z,100462.47
2023-05-12T14:27:57.923Z,100466.09
2023-05-12T14:32:03.127Z,100476.03
2023-05-12T14:36:08.403Z,100478.31
2023-05-12T14:40:12.659Z,100482.94
2023-05-12T14:44:15.426Z,100482.25
2023-05-12T14:48:18.448Z,100481.53
